Time;durP1;ratioP1;P1;durP2;ratioP2;P2;SDS_P1;SDS_P2;PMS_P1;PMS_P2;Temp;Humidity;BMP_temperature;BMP_pressure;BME280_temperature;BME280_humidity;BME280_pressure;Samples;Min_cycle;Max_cycle;Signal;HPM_P1;HPM_P2
2022/04/17 00:02:16;;;;;;;14.83;9.30;;;;;;;6.69;50.53;102896.25;5092281;28;20032;-93
2022/04/17 00:04:42;;;;;;;14.80;8.80;;;;;;;6.65;51.10;102892.13;5073872;28;20070;-90
2022/04/17 00:07:07;;;;;;;15.10;8.83;;;;;;;6.54;50.70;102871.53;5089616;28;20078;-94
2022/04/17 00:09:33;;;;;;;13.03;8.70;;;;;;;6.52;50.83;102873.53;5075128;28;20032;-91
2022/04/17 00:12:01;;;;;;;14.20;9.20;;;;;;;6.61;50.17;102899.66;5091974;28;20118;-90
2022/04/17 00:14:26;;;;;;;14.40;9.00;;;;;;;6.55;50.48;102879.47;5077704;28;20031;-91
2022/04/17 00:16:54;;;;;;;14.17;9.13;;;;;;;6.53;49.97;102868.00;5074631;28;20028;-92
2022/04/17 00:19:19;;;;;;;15.40;9.30;;;;;;;6.47;50.77;102871.22;5090119;28;20082;-94
2022/04/17 00:21:45;;;;;;;14.20;8.90;;;;;;;6.50;50.83;102886.25;5108288;28;20070;-91
2022/04/17 00:24:10;;;;;;;14.40;8.97;;;;;;;6.48;51.26;102882.88;5075123;28;20101;-90
2022/04/17 00:26:35;;;;;;;13.40;8.90;;;;;;;6.49;50.44;102892.66;5054498;28;20020;-90
2022/04/17 00:29:01;;;;;;;13.27;9.27;;;;;;;6.24;54.47;102882.19;5073002;28;20103;-92
2022/04/17 00:31:26;;;;;;;16.07;10.03;;;;;;;6.11;57.34;102894.97;5108260;28;20035;-91
2022/04/17 00:33:51;;;;;;;14.73;9.90;;;;;;;6.01;56.01;102886.84;5094835;28;20028;-93
2022/04/17 00:36:17;;;;;;;14.57;9.23;;;;;;;5.99;54.79;102886.13;5084874;28;20531;-93
2022/04/17 00:38:42;;;;;;;14.63;9.50;;;;;;;5.95;55.52;102881.09;5107382;28;20380;-92
2022/04/17 00:41:08;;;;;;;14.03;9.50;;;;;;;6.04;50.92;102872.28;5080589;28;20051;-95
2022/04/17 00:43:45;;;;;;;13.57;8.83;;;;;;;6.30;50.00;102882.63;5079620;28;20029;-91
2022/04/17 00:46:10;;;;;;;13.03;8.80;;;;;;;6.36;50.02;102884.78;5075613;28;20103;-93
2022/04/17 00:48:36;;;;;;;13.20;8.50;;;;;;;6.37;49.63;102881.09;5073319;28;20108;-90
2022/04/17 00:51:01;;;;;;;11.70;8.10;;;;;;;6.33;49.23;102869.75;5073089;28;20529;-93
2022/04/17 00:53:27;;;;;;;14.60;9.07;;;;;;;6.27;52.70;102885.56;5063865;28;20468;-90
2022/04/17 00:55:54;;;;;;;12.97;8.70;;;;;;;6.31;50.02;102882.50;5072896;28;20028;-91
2022/04/17 00:58:20;;;;;;;14.90;9.00;;;;;;;6.31;49.07;102881.63;5072585;28;20033;-91
2022/04/17 01:00:46;;;;;;;13.10;8.20;;;;;;;6.28;48.90;102863.06;5105951;28;20036;-91
2022/04/17 01:03:12;;;;;;;12.77;7.97;;;;;;;6.39;48.76;102881.81;5073689;28;20074;-94
2022/04/17 01:05:42;;;;;;;12.97;8.10;;;;;;;6.42;48.44;102879.72;5071337;28;20036;-92
2022/04/17 01:08:09;;;;;;;14.47;8.50;;;;;;;6.35;49.71;102877.69;5104749;28;20034;-90
2022/04/17 01:10:34;;;;;;;14.10;8.33;;;;;;;6.41;48.14;102877.16;5071297;28;20372;-91
2022/04/17 01:13:02;;;;;;;14.73;8.33;;;;;;;6.41;47.70;102875.31;5115730;27;20028;-92
2022/04/17 01:15:28;;;;;;;13.53;8.40;;;;;;;6.43;47.78;102880.56;5073764;28;20024;-89
2022/04/17 01:17:55;;;;;;;11.97;7.93;;;;;;;6.42;48.19;102879.72;5072939;28;20039;-93
2022/04/17 01:20:22;;;;;;;15.20;8.30;;;;;;;6.41;48.33;102883.38;5054366;28;20064;-92
2022/04/17 01:22:49;;;;;;;14.57;8.20;;;;;;;6.39;47.96;102879.13;5068949;28;20032;-93
2022/04/17 01:28:01;;;;;;;13.35;8.05;;;;;;;6.33;48.55;102874.28;5065915;28;20047;-90
2022/04/17 01:30:26;;;;;;;11.80;7.67;;;;;;;6.21;48.32;102871.66;5070651;28;20050;-94
2022/04/17 01:32:52;;;;;;;13.47;8.17;;;;;;;6.20;49.18;102880.75;5072843;28;20103;-93
2022/04/17 01:35:17;;;;;;;15.97;7.80;;;;;;;6.06;51.09;102873.00;5072026;28;20033;-92
2022/04/17 01:37:49;;;;;;;14.90;8.47;;;;;;;5.90;49.83;102857.25;5073434;28;20035;-92
2022/04/17 01:40:14;;;;;;;11.93;7.40;;;;;;;5.94;50.60;102880.22;5079549;28;20047;-91
2022/04/17 01:42:39;;;;;;;12.97;8.23;;;;;;;5.86;51.07;102878.22;5107056;28;20028;-91
2022/04/17 01:45:05;;;;;;;11.40;7.50;;;;;;;5.74;52.35;102873.88;5072089;28;20471;-91
2022/04/17 01:47:31;;;;;;;11.77;7.67;;;;;;;5.61;51.58;102873.22;5072362;28;20384;-90
2022/04/17 01:49:56;;;;;;;12.53;8.17;;;;;;;5.49;54.27;102872.38;5105425;28;20048;-90
2022/04/17 01:52:21;;;;;;;15.27;8.37;;;;;;;5.28;56.85;102875.03;5070058;28;20111;-91
2022/04/17 01:54:47;;;;;;;12.53;8.20;;;;;;;5.13;57.06;102883.38;5106637;28;20476;-92
2022/04/17 01:57:12;;;;;;;13.90;8.30;;;;;;;5.00;58.18;102872.75;5105026;28;20029;-91
2022/04/17 01:59:38;;;;;;;13.07;8.60;;;;;;;5.02;58.51;102876.19;5088860;28;20032;-90
2022/04/17 02:02:03;;;;;;;12.53;8.27;;;;;;;4.88;58.37;102871.06;5076279;28;20078;-91
2022/04/17 02:04:35;;;;;;;13.00;8.40;;;;;;;4.82;58.96;102861.69;5095442;28;20032;-92
2022/04/17 02:07:00;;;;;;;14.73;7.47;;;;;;;4.86;54.06;102857.78;5085832;28;20452;-93
2022/04/17 02:09:25;;;;;;;12.20;7.27;;;;;;;5.00;53.93;102864.69;5104845;28;20067;-93
2022/04/17 02:11:53;;;;;;;12.43;7.30;;;;;;;5.03;54.35;102855.53;5073477;28;20032;-92
2022/04/17 02:14:19;;;;;;;11.83;7.70;;;;;;;5.02;56.62;102861.91;5072932;28;20036;-90
2022/04/17 02:16:45;;;;;;;14.47;7.97;;;;;;;4.82;58.77;102861.69;5075956;28;20047;-91
2022/04/17 02:19:11;;;;;;;13.37;8.43;;;;;;;4.66;63.17;102855.84;5077978;28;20469;-90
2022/04/17 02:21:36;;;;;;;12.30;8.30;;;;;;;4.62;60.26;102867.81;5071722;28;20033;-90
2022/04/17 02:24:02;;;;;;;11.43;7.70;;;;;;;4.43;60.67;102865.75;5073623;28;20091;-91
2022/04/17 02:26:28;;;;;;;12.97;8.30;;;;;;;4.32;63.20;102859.38;5071934;28;20025;-90
2022/04/17 02:28:56;;;;;;;11.83;8.23;;;;;;;4.13;65.00;102859.97;5076197;28;20024;-90
2022/04/17 02:31:22;;;;;;;12.87;8.70;;;;;;;3.99;64.45;102860.22;5076499;28;20024;-90
2022/04/17 02:33:47;;;;;;;12.67;8.70;;;;;;;3.80;63.96;102848.19;5075681;28;20065;-92
2022/04/17 02:36:12;;;;;;;11.70;8.47;;;;;;;3.63;67.79;102851.31;5076792;28;20074;-92
2022/04/17 02:41:59;;;;;;;14.77;8.73;;;;;;;3.50;67.02;102849.56;5072658;28;20094;-92
2022/04/17 02:44:25;;;;;;;12.43;8.23;;;;;;;3.62;64.21;102855.84;5076453;28;20430;-92
2022/04/17 02:49:34;;;;;;;12.97;8.77;;;;;;;3.51;66.33;102853.97;5105056;28;20379;-90
2022/04/17 02:51:59;;;;;;;13.27;8.80;;;;;;;3.44;66.79;102842.00;5109968;28;20029;-90
2022/04/17 02:54:25;;;;;;;11.93;8.77;;;;;;;3.40;70.89;102850.38;5077486;28;20097;-90
2022/04/17 02:56:50;;;;;;;13.90;9.17;;;;;;;3.31;70.24;102846.56;5076591;28;20035;-90
2022/04/17 02:59:15;;;;;;;12.73;8.87;;;;;;;3.34;68.21;102857.06;5075980;28;20135;-91
2022/04/17 03:07:19;;;;;;;14.10;9.27;;;;;;;2.84;69.12;102831.22;5067060;28;20051;-91
2022/04/17 03:09:44;;;;;;;12.70;8.50;;;;;;;2.83;68.08;102842.91;5075672;28;20111;-91
2022/04/17 03:12:09;;;;;;;12.97;8.80;;;;;;;2.83;68.33;102839.38;5074125;28;20132;-90
2022/04/17 03:14:35;;;;;;;13.77;9.07;;;;;;;2.75;69.38;102828.34;5073885;28;20020;-90
2022/04/17 03:17:00;;;;;;;16.37;9.33;;;;;;;2.74;69.27;102830.16;5073793;28;20033;-91
2022/04/17 03:19:25;;;;;;;15.23;9.00;;;;;;;2.72;69.46;102834.78;5108130;28;20060;-90
2022/04/17 03:21:51;;;;;;;13.13;9.20;;;;;;;2.69;72.99;102835.88;5108735;28;20034;-91
2022/04/17 03:24:16;;;;;;;15.17;8.33;;;;;;;2.74;69.57;102838.19;5074511;28;20029;-92
2022/04/17 03:26:41;;;;;;;11.07;7.87;;;;;;;2.91;64.54;102830.75;5075519;28;20033;-92
2022/04/17 03:29:07;;;;;;;13.53;8.43;;;;;;;2.94;64.39;102803.75;5074261;28;20467;-92
2022/04/17 03:31:32;;;;;;;12.30;8.83;;;;;;;3.00;70.94;102830.09;5091439;28;20102;-91
2022/04/17 03:33:58;;;;;;;14.10;9.47;;;;;;;2.93;72.84;102831.50;5073777;28;20047;-93
2022/04/17 03:36:23;;;;;;;13.47;9.07;;;;;;;2.78;73.77;102814.75;5076618;28;20054;-93
2022/04/17 03:38:48;;;;;;;14.50;9.20;;;;;;;2.89;70.03;102824.69;5073151;28;20035;-92
2022/04/17 03:41:14;;;;;;;12.30;8.57;;;;;;;2.77;69.31;102805.00;5072481;28;20048;-93
2022/04/17 03:43:39;;;;;;;13.97;8.97;;;;;;;2.89;71.44;102827.34;5073390;28;20040;-93
2022/04/17 03:46:04;;;;;;;12.40;8.30;;;;;;;2.82;69.22;102805.53;5074835;28;20043;-92
2022/04/17 03:48:30;;;;;;;14.57;9.50;;;;;;;2.82;71.96;102821.59;5074899;28;20401;-92
2022/04/17 03:50:56;;;;;;;14.03;8.83;;;;;;;2.87;69.92;102817.59;5075616;28;20355;-91
2022/04/17 03:53:21;;;;;;;13.07;8.40;;;;;;;2.86;70.11;102825.75;5078138;28;20445;-91
2022/04/17 03:55:47;;;;;;;12.77;8.67;;;;;;;2.75;71.31;102818.50;5075249;28;20377;-90
2022/04/17 03:58:12;;;;;;;13.03;8.70;;;;;;;2.61;73.43;102821.31;5107630;28;20070;-91
2022/04/17 04:00:37;;;;;;;13.83;8.70;;;;;;;2.72;70.86;102828.56;5073847;28;20155;-90
2022/04/17 04:03:03;;;;;;;13.70;9.53;;;;;;;2.57;73.87;102825.19;5071403;28;20452;-91
2022/04/17 04:05:29;;;;;;;13.33;9.07;;;;;;;2.51;74.37;102813.94;5073712;28;20368;-91
2022/04/17 04:07:54;;;;;;;13.13;8.30;;;;;;;2.55;69.30;102817.25;5073071;28;20036;-92
2022/04/17 04:10:19;;;;;;;11.50;7.60;;;;;;;2.61;67.32;102811.47;5073538;28;20032;-91
2022/04/17 04:12:45;;;;;;;13.63;8.70;;;;;;;2.53;70.40;102804.00;5073272;28;20135;-90
2022/04/17 04:15:10;;;;;;;12.50;8.73;;;;;;;2.52;72.40;102804.94;5074973;28;20024;-91
2022/04/17 04:17:36;;;;;;;14.10;8.97;;;;;;;2.46;74.27;102797.38;5087770;28;20039;-91
2022/04/17 04:20:05;;;;;;;11.83;8.40;;;;;;;2.39;70.35;102787.22;5072041;28;20043;-92
2022/04/17 04:22:30;;;;;;;13.43;8.80;;;;;;;2.30;74.41;102788.72;5076429;28;20036;-92
2022/04/17 04:24:56;;;;;;;12.27;8.40;;;;;;;2.52;68.43;102802.28;5077582;28;20085;-92
2022/04/17 04:30:06;;;;;;;13.63;7.77;;;;;;;2.80;65.35;102794.94;5087072;28;20067;-92
2022/04/17 04:32:31;;;;;;;13.60;8.20;;;;;;;2.83;66.32;102793.84;5077776;28;20067;-91
2022/04/17 04:35:00;;;;;;;12.47;7.70;;;;;;;2.91;65.05;102787.91;5071607;28;20059;-91
2022/04/17 04:37:26;;;;;;;11.50;8.00;;;;;;;2.81;66.56;102791.25;5073895;28;20074;-91
2022/04/17 04:39:52;;;;;;;14.27;8.33;;;;;;;2.79;66.67;102793.22;5074390;28;20111;-90
2022/04/17 04:42:21;;;;;;;12.87;8.50;;;;;;;2.66;68.68;102787.03;5074274;28;20044;-90
2022/04/17 04:44:47;;;;;;;14.70;8.40;;;;;;;2.50;68.48;102774.78;5110031;27;20039;-90
2022/04/17 04:47:13;;;;;;;12.47;7.97;;;;;;;2.60;68.71;102785.69;5094452;28;20028;-90
2022/04/17 04:49:39;;;;;;;16.60;9.20;;;;;;;2.44;73.23;102779.72;5089623;28;20465;-90
2022/04/17 04:52:04;;;;;;;11.37;8.47;;;;;;;2.33;69.99;102756.41;5074238;28;20032;-91
2022/04/17 04:54:30;;;;;;;13.47;8.43;;;;;;;2.37;68.56;102749.88;5070848;28;20028;-91
2022/04/17 04:56:56;;;;;;;16.67;9.70;;;;;;;2.44;73.33;102782.41;5081381;28;20028;-90
2022/04/17 04:59:22;;;;;;;13.67;8.37;;;;;;;2.48;69.30;102779.38;5110892;27;20039;-91
2022/04/17 05:01:51;;;;;;;15.27;8.53;;;;;;;2.56;66.99;102775.28;5086560;28;20490;-92
2022/04/17 05:04:17;;;;;;;12.67;8.63;;;;;;;2.66;67.20;102781.69;5073623;28;20350;-94
2022/04/17 05:06:43;;;;;;;12.33;8.37;;;;;;;2.81;65.27;102785.06;5094891;28;20586;-95
2022/04/17 05:09:09;;;;;;;11.57;8.10;;;;;;;2.90;65.04;102779.03;5087886;28;20270;-93
2022/04/17 05:11:37;;;;;;;13.73;8.43;;;;;;;3.04;64.71;102786.03;5092945;28;20036;-93
2022/04/17 05:14:04;;;;;;;13.50;8.40;;;;;;;3.10;65.49;102790.97;5081912;28;20028;-90
2022/04/17 05:16:29;;;;;;;14.47;9.13;;;;;;;3.03;67.56;102790.56;5074440;28;20286;-91
2022/04/17 05:19:19;;;;;;;14.37;9.00;;;;;;;3.00;69.64;102790.75;5070885;28;20031;-91
2022/04/17 05:21:40;;;;;;;13.07;8.67;;;;;;;3.01;67.27;102791.63;5103107;27;20032;-91
2022/04/17 05:24:06;;;;;;;13.97;8.87;;;;;;;3.09;66.84;102789.25;5067848;28;20758;-91
2022/04/17 05:26:31;;;;;;;14.13;8.60;;;;;;;3.16;65.96;102792.31;5072128;28;20473;-90
2022/04/17 05:28:56;;;;;;;13.40;8.77;;;;;;;3.20;67.47;102799.16;5071028;28;20135;-90
2022/04/17 05:31:22;;;;;;;12.53;8.90;;;;;;;3.24;68.14;102792.59;5072491;28;20077;-90
2022/04/17 05:33:47;;;;;;;12.13;8.57;;;;;;;3.32;66.41;102789.34;5073028;28;20047;-91
2022/04/17 05:36:12;;;;;;;13.60;8.83;;;;;;;3.45;66.29;102800.81;5076974;28;20107;-90
2022/04/17 05:38:38;;;;;;;14.27;8.67;;;;;;;3.54;64.87;102791.22;5106094;28;20032;-91
2022/04/17 05:41:03;;;;;;;13.00;8.40;;;;;;;3.59;64.73;102778.34;5105141;28;20153;-90
2022/04/17 05:43:28;;;;;;;12.93;8.67;;;;;;;3.78;66.18;102793.84;5073182;28;20020;-90
2022/04/17 05:45:57;;;;;;;13.93;8.63;;;;;;;4.16;64.08;102800.72;5088437;28;20032;-91
2022/04/17 05:48:22;;;;;;;12.20;8.50;;;;;;;5.87;59.86;102796.50;5084905;28;20477;-92
2022/04/17 05:50:48;;;;;;;10.77;7.80;;;;;;;7.48;54.22;102789.41;5071412;28;20059;-91
2022/04/17 05:53:14;;;;;;;10.97;8.00;;;;;;;8.43;49.66;102779.47;5089901;28;20123;-93
2022/04/17 05:55:40;;;;;;;9.37;7.10;;;;;;;9.20;47.53;102762.91;5082025;28;20025;-92
2022/04/17 05:58:05;;;;;;;10.37;7.27;;;;;;;9.67;45.64;102786.09;5074077;28;20090;-93
2022/04/17 06:00:31;;;;;;;9.70;6.93;;;;;;;10.07;45.38;102784.66;5091964;28;20119;-90
2022/04/17 06:02:56;;;;;;;10.13;7.23;;;;;;;10.67;44.04;102785.63;5092386;28;20064;-94
2022/04/17 06:05:21;;;;;;;10.43;6.90;;;;;;;10.69;42.43;102792.59;5089015;28;20054;-92
2022/04/17 06:07:47;;;;;;;9.30;6.93;;;;;;;10.19;43.02;102788.78;5071881;28;20036;-89
2022/04/17 06:10:14;;;;;;;9.30;7.07;;;;;;;9.81;44.21;102801.78;5072198;28;20478;-94
2022/04/17 06:12:40;;;;;;;9.97;6.93;;;;;;;9.35;45.23;102793.81;5074369;28;20024;-91
2022/04/17 06:15:07;;;;;;;8.80;6.70;;;;;;;9.44;45.94;102787.47;5072069;28;20059;-90
2022/04/17 06:17:39;;;;;;;9.40;6.60;;;;;;;9.65;45.78;102794.38;5073395;28;20471;-92
2022/04/17 06:20:07;;;;;;;8.40;6.30;;;;;;;9.74;45.92;102787.19;5078979;28;20345;-91
2022/04/17 06:22:34;;;;;;;10.83;6.63;;;;;;;9.45;45.97;102791.00;5071216;28;20097;-91
2022/04/17 06:25:00;;;;;;;9.63;6.60;;;;;;;8.93;46.64;102798.00;5104604;28;20025;-90
2022/04/17 06:27:26;;;;;;;8.23;6.53;;;;;;;8.73;48.21;102785.56;5104184;28;20028;-92
2022/04/17 06:29:51;;;;;;;8.60;6.50;;;;;;;8.12;48.62;102779.75;5073335;28;20028;-90
2022/04/17 06:32:16;;;;;;;11.03;6.90;;;;;;;7.87;50.12;102776.69;5077626;28;20040;-93
2022/04/17 06:34:42;;;;;;;9.93;6.83;;;;;;;7.74;50.88;102785.13;5071385;28;20116;-94
2022/04/17 06:37:07;;;;;;;8.73;6.50;;;;;;;7.75;51.46;102780.56;5104125;28;20127;-92
2022/04/17 06:39:32;;;;;;;10.73;7.20;;;;;;;7.84;51.37;102766.19;5079876;28;20040;-91
2022/04/17 06:41:58;;;;;;;8.33;6.70;;;;;;;7.59;51.24;102760.44;5084963;28;20047;-91
2022/04/17 06:44:23;;;;;;;9.07;6.23;;;;;;;7.78;50.77;102781.13;5081409;28;20024;-89
2022/04/17 06:46:48;;;;;;;7.73;6.07;;;;;;;7.83;51.62;102777.97;5070921;28;20082;-91
2022/04/17 06:49:14;;;;;;;8.50;6.00;;;;;;;7.82;50.68;102781.69;5072519;28;20040;-89
2022/04/17 06:51:39;;;;;;;8.73;6.33;;;;;;;7.83;51.14;102782.53;5068920;28;20021;-93
2022/04/17 06:54:05;;;;;;;8.60;5.97;;;;;;;7.85;51.43;102776.00;5066183;28;20028;-92
2022/04/17 06:56:30;;;;;;;7.83;6.10;;;;;;;7.96;51.81;102780.38;5072163;28;20077;-92
2022/04/17 06:58:56;;;;;;;9.50;6.27;;;;;;;8.02;50.75;102781.63;5070261;28;20056;-91
2022/04/17 07:01:23;;;;;;;9.87;5.87;;;;;;;7.96;50.97;102782.22;5086776;28;20365;-90
2022/04/17 07:03:48;;;;;;;8.90;6.40;;;;;;;8.11;50.97;102784.28;5071349;28;20048;-89
2022/04/17 07:06:13;;;;;;;8.43;6.07;;;;;;;8.09;52.87;102788.13;5071846;28;20025;-91
2022/04/17 07:08:39;;;;;;;6.77;5.53;;;;;;;8.08;52.04;102783.75;5072353;28;20032;-91
2022/04/17 07:11:04;;;;;;;7.33;5.90;;;;;;;8.05;51.20;102781.31;5072092;28;20056;-89
2022/04/17 07:13:30;;;;;;;6.33;5.70;;;;;;;8.17;52.47;102777.44;5077121;28;20077;-91
2022/04/17 07:15:56;;;;;;;8.47;5.47;;;;;;;8.22;51.24;102767.06;5074717;28;20471;-90
2022/04/17 07:18:21;;;;;;;8.30;5.90;;;;;;;8.44;51.56;102771.22;5076054;28;20039;-90
2022/04/17 07:20:47;;;;;;;8.93;5.97;;;;;;;8.52;51.54;102761.53;5076289;28;20056;-92
2022/04/17 07:23:12;;;;;;;8.67;5.70;;;;;;;8.61;52.20;102753.38;5108060;28;20338;-92
2022/04/17 07:25:38;;;;;;;7.50;5.60;;;;;;;8.82;52.09;102760.34;5109162;28;20154;-92
2022/04/17 07:28:04;;;;;;;6.57;5.70;;;;;;;8.75;50.41;102764.66;5073262;28;20031;-91
2022/04/17 07:30:32;;;;;;;5.80;5.20;;;;;;;8.92;51.57;102758.44;5077968;28;20108;-90
2022/04/17 07:33:00;;;;;;;6.43;5.33;;;;;;;9.06;51.04;102769.72;5089397;28;20141;-90
2022/04/17 07:35:27;;;;;;;7.27;5.10;;;;;;;8.90;48.47;102760.44;5076735;28;20027;-90
2022/04/17 07:37:54;;;;;;;7.60;5.53;;;;;;;9.06;49.27;102767.84;5090669;28;20372;-92
2022/04/17 07:40:25;;;;;;;6.80;5.23;;;;;;;9.16;49.35;102758.81;5096727;28;20455;-90
2022/04/17 07:42:51;;;;;;;6.10;5.17;;;;;;;9.06;48.40;102753.50;5079551;28;20040;-93
2022/04/17 07:45:17;;;;;;;8.37;5.23;;;;;;;9.04;48.73;102748.22;5074374;28;20419;-92
2022/04/17 07:47:44;;;;;;;6.83;4.90;;;;;;;9.22;48.98;102748.22;5078988;28;20047;-90
2022/04/17 07:50:12;;;;;;;9.20;5.10;;;;;;;9.38;47.38;102746.66;5082335;28;20027;-88
2022/04/17 07:52:39;;;;;;;7.03;4.53;;;;;;;9.45;46.59;102748.56;5076415;28;20383;-92
2022/04/17 07:55:05;;;;;;;6.50;4.67;;;;;;;9.49;47.77;102743.69;5093314;28;20537;-88
2022/04/17 07:57:53;;;;;;;6.20;5.00;;;;;;;9.56;48.09;102743.91;5072570;28;20033;-93
2022/04/17 08:00:19;;;;;;;5.93;4.97;;;;;;;9.60;47.95;102740.75;5073628;28;20059;-87
2022/04/17 08:02:50;;;;;;;6.10;4.90;;;;;;;9.60;47.55;102737.16;5094281;28;20344;-91
2022/04/17 08:05:16;;;;;;;5.63;4.60;;;;;;;9.66;46.86;102741.94;5075646;28;20028;-90
2022/04/17 08:07:41;;;;;;;8.37;5.10;;;;;;;9.74;47.09;102735.75;5087173;28;20448;-92
2022/04/17 08:10:07;;;;;;;6.10;5.10;;;;;;;10.00;48.84;102743.00;5089618;28;20131;-89
2022/04/17 08:12:32;;;;;;;6.33;4.80;;;;;;;10.19;47.73;102736.50;5075621;28;20024;-91
2022/04/17 08:14:58;;;;;;;8.13;5.17;;;;;;;10.17;46.16;102722.25;5076318;28;20039;-92
2022/04/17 08:17:23;;;;;;;6.30;4.80;;;;;;;10.20;46.43;102725.47;5086147;28;20024;-93
2022/04/17 08:19:49;;;;;;;6.83;4.60;;;;;;;10.20;45.81;102727.31;5073999;28;20090;-95
2022/04/17 08:22:14;;;;;;;5.97;4.73;;;;;;;10.22;45.39;102738.88;5075090;28;20191;-93
2022/04/17 08:24:39;;;;;;;5.97;4.57;;;;;;;10.34;46.21;102737.56;5074140;28;20098;-90
2022/04/17 08:27:05;;;;;;;7.70;5.23;;;;;;;10.41;46.87;102726.94;5076601;28;20107;-92
2022/04/17 08:29:32;;;;;;;5.77;4.53;;;;;;;10.56;44.24;102733.41;5076120;28;20189;-92
2022/04/17 08:31:57;;;;;;;6.03;4.37;;;;;;;10.71;46.17;102732.78;5082971;28;20032;-90
2022/04/17 08:34:23;;;;;;;5.77;4.43;;;;;;;10.84;44.99;102733.16;5110686;28;20093;-90
2022/04/17 08:36:48;;;;;;;7.17;4.30;;;;;;;10.72;44.51;102729.91;5080736;28;20052;-92
2022/04/17 08:39:14;;;;;;;6.17;4.77;;;;;;;10.83;44.16;102733.31;5075471;28;20052;-91
2022/04/17 08:41:44;;;;;;;7.30;4.37;;;;;;;11.00;45.23;102731.47;5075167;28;20154;-93
2022/04/17 08:44:10;;;;;;;7.37;4.40;;;;;;;11.06;43.04;102736.22;5075311;28;20086;-92
2022/04/17 08:46:35;;;;;;;6.90;4.53;;;;;;;11.04;42.46;102740.94;5107228;28;20037;-93
2022/04/17 08:49:02;;;;;;;4.83;4.03;;;;;;;11.15;44.28;102718.91;5073895;28;20062;-89
2022/04/17 08:51:28;;;;;;;4.77;4.00;;;;;;;11.22;42.55;102729.94;5074559;28;20025;-89
2022/04/17 08:53:56;;;;;;;4.73;4.17;;;;;;;11.32;43.11;102727.91;5105480;27;20372;-92
2022/04/17 08:56:21;;;;;;;6.93;4.30;;;;;;;11.41;44.11;102723.31;5078181;28;20093;-92
2022/04/17 08:58:47;;;;;;;5.90;4.73;;;;;;;11.52;41.50;102722.97;5072178;28;20051;-89
2022/04/17 09:01:18;;;;;;;6.57;4.40;;;;;;;11.68;43.99;102723.94;5072160;28;20040;-90
2022/04/17 09:03:47;;;;;;;6.30;4.50;;;;;;;11.36;43.01;102701.28;5081158;28;20016;-90
2022/04/17 09:06:19;;;;;;;5.83;4.20;;;;;;;11.46;42.57;102723.63;5094452;28;20020;-89
2022/04/17 09:09:00;;;;;;;7.13;4.20;;;;;;;11.30;41.27;102721.78;5088090;28;20025;-88
2022/04/17 09:11:30;;;;;;;5.43;4.37;;;;;;;11.43;41.81;102722.13;5074014;28;20111;-92
2022/04/17 09:14:01;;;;;;;5.67;4.23;;;;;;;11.57;42.27;102708.88;5071314;28;20578;-91
2022/04/17 09:16:34;;;;;;;6.30;4.10;;;;;;;11.74;44.16;102717.84;5105154;27;20032;-91
2022/04/17 09:19:10;;;;;;;6.40;3.90;;;;;;;11.70;41.04;102711.06;5074890;28;20380;-91
2022/04/17 09:21:35;;;;;;;4.57;4.10;;;;;;;11.95;41.88;102720.00;5055183;28;20036;-88
2022/04/17 09:24:21;;;;;;;4.57;4.10;;;;;;;12.04;41.34;102704.53;5106841;28;20024;-90
2022/04/17 09:26:47;;;;;;;6.03;4.33;;;;;;;11.97;41.09;102705.22;5070065;28;20490;-92
2022/04/17 09:29:18;;;;;;;6.93;4.10;;;;;;;11.91;41.60;102684.19;5073910;28;20020;-87
2022/04/17 09:31:43;;;;;;;5.70;4.13;;;;;;;12.11;41.44;102697.34;5073904;28;20468;-90
2022/04/17 09:34:08;;;;;;;6.20;4.30;;;;;;;12.16;43.14;102692.25;5073491;28;20078;-93
2022/04/17 09:36:37;;;;;;;5.93;4.47;;;;;;;12.26;41.21;102689.31;5111386;27;20033;-90
2022/04/17 09:39:15;;;;;;;10.07;4.80;;;;;;;12.43;42.50;102690.03;5072978;28;20035;-90
2022/04/17 09:42:01;;;;;;;5.57;4.20;;;;;;;12.20;39.55;102696.31;5083352;28;20055;-90
2022/04/17 09:44:33;;;;;;;6.73;4.17;;;;;;;12.36;40.88;102689.06;5072847;28;20126;-91
2022/04/17 09:46:58;;;;;;;7.57;4.30;;;;;;;12.37;40.08;102679.91;5063757;28;20037;-90
2022/04/17 09:49:24;;;;;;;6.13;3.97;;;;;;;12.45;40.63;102683.41;5072942;28;20418;-90
2022/04/17 09:52:05;;;;;;;7.00;4.03;;;;;;;12.45;40.11;102671.69;5073228;28;20059;-91
2022/04/17 09:54:31;;;;;;;4.67;3.97;;;;;;;12.66;41.68;102668.31;5074466;28;20020;-90
2022/04/17 09:56:56;;;;;;;6.10;4.10;;;;;;;12.87;40.50;102669.53;5071845;28;20111;-88
2022/04/17 09:59:23;;;;;;;5.30;4.27;;;;;;;12.75;40.18;102656.34;5083105;28;20452;-91
2022/04/17 10:01:54;;;;;;;5.13;3.80;;;;;;;12.90;40.61;102653.69;5092126;28;20055;-89
2022/04/17 10:04:21;;;;;;;4.23;3.83;;;;;;;12.71;38.86;102652.28;5082057;28;20071;-89
2022/04/17 10:06:48;;;;;;;5.70;4.17;;;;;;;12.64;39.20;102651.34;5072517;28;20120;-91
2022/04/17 10:09:14;;;;;;;5.67;3.50;;;;;;;12.78;38.52;102636.97;5071162;28;20028;-93
2022/04/17 10:11:40;;;;;;;5.30;3.60;;;;;;;12.73;36.96;102635.78;5072729;28;20040;-93
2022/04/17 10:14:07;;;;;;;6.37;3.80;;;;;;;12.78;38.31;102627.94;5104985;28;20148;-88
2022/04/17 10:16:34;;;;;;;6.17;3.93;;;;;;;12.86;37.61;102611.53;5053690;28;20025;-91
2022/04/17 10:19:04;;;;;;;6.97;4.10;;;;;;;13.03;38.50;102622.28;5073651;28;20111;-90
2022/04/17 10:21:34;;;;;;;3.87;3.37;;;;;;;13.05;36.98;102609.34;5072807;28;20479;-91
2022/04/17 10:24:02;;;;;;;4.23;3.80;;;;;;;13.24;38.52;102616.97;5070640;28;20029;-94
2022/04/17 10:26:31;;;;;;;6.67;3.80;;;;;;;13.20;38.64;102609.38;5071445;28;20533;-90
2022/04/17 10:28:59;;;;;;;7.57;4.00;;;;;;;13.23;37.22;102598.09;5072220;28;20115;-91
2022/04/17 10:31:39;;;;;;;5.50;3.70;;;;;;;13.42;37.47;102596.72;5077558;28;20024;-88
2022/04/17 10:34:34;;;;;;;4.90;3.27;;;;;;;13.45;36.31;102599.06;5093834;28;20050;-91
2022/04/17 10:37:03;;;;;;;6.45;3.60;;;;;;;13.59;36.99;102595.50;5092344;28;20028;-88
2022/04/17 10:39:35;;;;;;;4.77;3.83;;;;;;;13.65;37.00;102588.44;5073248;28;20364;-90
2022/04/17 10:42:00;;;;;;;4.40;3.57;;;;;;;13.77;36.71;102583.38;5073247;28;20032;-95
2022/04/17 10:44:31;;;;;;;7.13;3.80;;;;;;;13.85;36.17;102586.81;5074032;28;20135;-89
2022/04/17 10:46:57;;;;;;;4.57;3.60;;;;;;;13.76;35.97;102585.25;5055939;28;20044;-91
2022/04/17 10:49:29;;;;;;;4.87;3.60;;;;;;;13.84;37.55;102578.84;5073939;28;20054;-88
2022/04/17 10:51:56;;;;;;;4.60;3.63;;;;;;;13.92;36.43;102570.53;5123896;27;20154;-86
2022/04/17 10:54:22;;;;;;;4.73;3.70;;;;;;;14.16;37.28;102565.78;5088963;28;20016;-91
2022/04/17 10:56:54;;;;;;;4.87;4.10;;;;;;;14.46;39.71;102561.03;5076428;28;20025;-89
2022/04/17 10:59:27;;;;;;;5.33;4.10;;;;;;;14.35;35.45;102567.84;5081578;28;20052;-93
2022/04/17 11:02:25;;;;;;;6.47;4.63;;;;;;;14.22;35.59;102558.72;5096261;28;20341;-90
2022/04/17 11:04:53;;;;;;;5.87;4.03;;;;;;;14.37;35.32;102555.91;5072272;28;20479;-91
2022/04/17 11:07:21;;;;;;;5.93;3.90;;;;;;;14.41;35.62;102538.97;5062602;28;20123;-92
2022/04/17 11:09:47;;;;;;;5.87;4.17;;;;;;;14.67;36.24;102549.31;5063412;28;20507;-90
2022/04/17 11:12:18;;;;;;;5.43;3.77;;;;;;;14.78;33.93;102550.66;5064662;28;20036;-91
2022/04/17 11:14:54;;;;;;;7.33;4.10;;;;;;;14.82;35.12;102549.22;5063362;28;20037;-93
2022/04/17 11:17:21;;;;;;;5.67;4.10;;;;;;;14.91;34.62;102536.25;5064274;28;20297;-90
2022/04/17 11:19:48;;;;;;;4.70;3.60;;;;;;;15.03;33.23;102540.09;5063999;28;20039;-89
2022/04/17 11:22:16;;;;;;;3.93;3.50;;;;;;;15.25;31.56;102522.81;5095866;27;20063;-88
2022/04/17 11:24:54;;;;;;;5.73;3.70;;;;;;;15.47;33.21;102529.81;5062152;28;20032;-91
2022/04/17 11:27:36;;;;;;;5.23;3.80;;;;;;;15.59;33.84;102508.22;5063729;28;20092;-90
2022/04/17 11:30:03;;;;;;;4.33;3.40;;;;;;;15.56;30.98;102505.91;5062612;28;20127;-91
2022/04/17 11:32:29;;;;;;;6.27;3.70;;;;;;;15.62;31.85;102524.22;5062970;28;20032;-93
2022/04/17 11:34:57;;;;;;;4.27;3.70;;;;;;;15.84;31.63;102524.09;5062834;28;20039;-89
2022/04/17 11:37:23;;;;;;;5.40;3.33;;;;;;;15.77;30.73;102517.75;5063411;28;20068;-91
2022/04/17 11:39:49;;;;;;;5.83;3.70;;;;;;;15.74;31.13;102515.44;5062026;28;20859;-93
2022/04/17 11:42:15;;;;;;;6.93;3.70;;;;;;;15.64;29.69;102503.00;5062516;28;20036;-90
2022/04/17 11:44:42;;;;;;;3.93;3.30;;;;;;;16.01;28.79;102502.69;5068216;28;20640;-92